sensor_id;sensor_type;location;lat;lon;timestamp;P1;durP1;ratioP1;P2;durP2;ratioP2
13404;SDS011;6773;51.192;7.024;2022-09-13T00:00:16;4.25;;;2.30;;
13404;SDS011;6773;51.192;7.024;2022-09-13T00:02:42;3.00;;;2.63;;
13404;SDS011;6773;51.192;7.024;2022-09-13T00:05:08;5.75;;;2.55;;
13404;SDS011;6773;51.192;7.024;2022-09-13T00:07:34;3.42;;;2.38;;
13404;SDS011;6773;51.192;7.024;2022-09-13T00:09:59;4.97;;;2.33;;
13404;SDS011;6773;51.192;7.024;2022-09-13T00:12:25;4.85;;;2.72;;
13404;SDS011;6773;51.192;7.024;2022-09-13T00:14:51;2.75;;;2.30;;
13404;SDS011;6773;51.192;7.024;2022-09-13T00:17:17;2.30;;;2.10;;
13404;SDS011;6773;51.192;7.024;2022-09-13T00:19:43;2.70;;;2.50;;
13404;SDS011;6773;51.192;7.024;2022-09-13T00:22:09;2.78;;;2.58;;
13404;SDS011;6773;51.192;7.024;2022-09-13T00:24:34;3.00;;;2.63;;
13404;SDS011;6773;51.192;7.024;2022-09-13T00:27:01;4.78;;;2.53;;
13404;SDS011;6773;51.192;7.024;2022-09-13T00:29:27;3.00;;;2.70;;
13404;SDS011;6773;51.192;7.024;2022-09-13T00:31:52;3.17;;;2.88;;
13404;SDS011;6773;51.192;7.024;2022-09-13T00:34:18;2.95;;;2.58;;
13404;SDS011;6773;51.192;7.024;2022-09-13T00:36:43;4.03;;;2.55;;
13404;SDS011;6773;51.192;7.024;2022-09-13T00:39:09;2.80;;;2.53;;
13404;SDS011;6773;51.192;7.024;2022-09-13T00:41:36;4.10;;;2.40;;
13404;SDS011;6773;51.192;7.024;2022-09-13T00:44:02;3.20;;;2.90;;
13404;SDS011;6773;51.192;7.024;2022-09-13T00:49:10;2.50;;;2.30;;
13404;SDS011;6773;51.192;7.024;2022-09-13T00:51:42;2.85;;;2.35;;
13404;SDS011;6773;51.192;7.024;2022-09-13T00:54:12;2.90;;;2.60;;
13404;SDS011;6773;51.192;7.024;2022-09-13T00:56:40;3.03;;;2.30;;
13404;SDS011;6773;51.192;7.024;2022-09-13T00:59:13;3.28;;;2.80;;
13404;SDS011;6773;51.192;7.024;2022-09-13T01:01:46;3.80;;;2.72;;
13404;SDS011;6773;51.192;7.024;2022-09-13T01:04:14;4.38;;;2.72;;
13404;SDS011;6773;51.192;7.024;2022-09-13T01:06:41;2.92;;;2.63;;
13404;SDS011;6773;51.192;7.024;2022-09-13T01:09:09;4.18;;;2.67;;
13404;SDS011;6773;51.192;7.024;2022-09-13T01:11:46;2.60;;;2.40;;
13404;SDS011;6773;51.192;7.024;2022-09-13T01:14:15;2.85;;;2.53;;
13404;SDS011;6773;51.192;7.024;2022-09-13T01:16:42;3.35;;;3.05;;
13404;SDS011;6773;51.192;7.024;2022-09-13T01:19:08;2.70;;;2.30;;
13404;SDS011;6773;51.192;7.024;2022-09-13T01:29:33;2.75;;;2.53;;
13404;SDS011;6773;51.192;7.024;2022-09-13T01:32:16;3.25;;;2.60;;
13404;SDS011;6773;51.192;7.024;2022-09-13T01:34:51;2.60;;;2.40;;
13404;SDS011;6773;51.192;7.024;2022-09-13T01:37:56;4.47;;;2.60;;
13404;SDS011;6773;51.192;7.024;2022-09-13T01:45:53;2.67;;;2.47;;
13404;SDS011;6773;51.192;7.024;2022-09-13T01:56:53;4.22;;;2.80;;
13404;SDS011;6773;51.192;7.024;2022-09-13T02:02:03;3.10;;;2.60;;
13404;SDS011;6773;51.192;7.024;2022-09-13T02:04:55;2.50;;;2.30;;
13404;SDS011;6773;51.192;7.024;2022-09-13T02:07:35;2.75;;;2.33;;
13404;SDS011;6773;51.192;7.024;2022-09-13T02:10:07;2.90;;;2.58;;
13404;SDS011;6773;51.192;7.024;2022-09-13T02:12:37;4.20;;;2.33;;
13404;SDS011;6773;51.192;7.024;2022-09-13T02:15:16;3.08;;;2.70;;
13404;SDS011;6773;51.192;7.024;2022-09-13T02:18:09;2.40;;;2.20;;
13404;SDS011;6773;51.192;7.024;2022-09-13T02:20:36;4.15;;;2.40;;
13404;SDS011;6773;51.192;7.024;2022-09-13T02:23:19;3.83;;;2.58;;
13404;SDS011;6773;51.192;7.024;2022-09-13T02:25:49;3.03;;;2.38;;
13404;SDS011;6773;51.192;7.024;2022-09-13T02:28:20;3.55;;;2.60;;
13404;SDS011;6773;51.192;7.024;2022-09-13T02:30:52;2.80;;;2.60;;
13404;SDS011;6773;51.192;7.024;2022-09-13T02:33:23;2.83;;;2.38;;
13404;SDS011;6773;51.192;7.024;2022-09-13T02:36:10;2.65;;;2.42;;
13404;SDS011;6773;51.192;7.024;2022-09-13T02:38:47;4.10;;;2.78;;
13404;SDS011;6773;51.192;7.024;2022-09-13T02:41:24;4.47;;;2.80;;
13404;SDS011;6773;51.192;7.024;2022-09-13T02:44:06;2.50;;;2.30;;
13404;SDS011;6773;51.192;7.024;2022-09-13T02:46:53;3.75;;;2.88;;
13404;SDS011;6773;51.192;7.024;2022-09-13T02:49:28;3.25;;;2.60;;
13404;SDS011;6773;51.192;7.024;2022-09-13T02:57:29;3.00;;;2.70;;
13404;SDS011;6773;51.192;7.024;2022-09-13T03:00:02;4.55;;;2.85;;
13404;SDS011;6773;51.192;7.024;2022-09-13T03:02:32;3.60;;;2.72;;
13404;SDS011;6773;51.192;7.024;2022-09-13T03:05:00;3.33;;;2.42;;
13404;SDS011;6773;51.192;7.024;2022-09-13T03:07:26;2.65;;;2.45;;
13404;SDS011;6773;51.192;7.024;2022-09-13T03:09:57;2.85;;;2.50;;
13404;SDS011;6773;51.192;7.024;2022-09-13T03:12:40;2.65;;;2.28;;
13404;SDS011;6773;51.192;7.024;2022-09-13T03:18:22;2.50;;;2.30;;
13404;SDS011;6773;51.192;7.024;2022-09-13T03:21:21;3.75;;;2.40;;
13404;SDS011;6773;51.192;7.024;2022-09-13T03:24:14;2.47;;;2.28;;
13404;SDS011;6773;51.192;7.024;2022-09-13T03:29:50;2.90;;;2.63;;
13404;SDS011;6773;51.192;7.024;2022-09-13T03:32:36;3.05;;;2.75;;
13404;SDS011;6773;51.192;7.024;2022-09-13T03:37:50;3.38;;;3.08;;
13404;SDS011;6773;51.192;7.024;2022-09-13T03:40:24;6.18;;;3.80;;
13404;SDS011;6773;51.192;7.024;2022-09-13T03:43:05;3.45;;;3.05;;
13404;SDS011;6773;51.192;7.024;2022-09-13T03:45:45;3.28;;;2.97;;
13404;SDS011;6773;51.192;7.024;2022-09-13T03:48:13;3.65;;;3.10;;
13404;SDS011;6773;51.192;7.024;2022-09-13T03:50:40;3.20;;;2.90;;
13404;SDS011;6773;51.192;7.024;2022-09-13T03:53:10;2.70;;;2.50;;
13404;SDS011;6773;51.192;7.024;2022-09-13T03:55:38;3.35;;;2.95;;
13404;SDS011;6773;51.192;7.024;2022-09-13T03:58:08;2.63;;;2.42;;
13404;SDS011;6773;51.192;7.024;2022-09-13T04:00:38;3.92;;;3.20;;
13404;SDS011;6773;51.192;7.024;2022-09-13T04:03:05;3.20;;;2.90;;
13404;SDS011;6773;51.192;7.024;2022-09-13T04:05:31;3.30;;;3.00;;
13404;SDS011;6773;51.192;7.024;2022-09-13T04:07:58;3.35;;;3.05;;
13404;SDS011;6773;51.192;7.024;2022-09-13T04:10:25;3.22;;;2.92;;
13404;SDS011;6773;51.192;7.024;2022-09-13T04:12:52;3.20;;;2.90;;
13404;SDS011;6773;51.192;7.024;2022-09-13T04:15:18;3.50;;;3.05;;
13404;SDS011;6773;51.192;7.024;2022-09-13T04:17:45;3.50;;;2.95;;
13404;SDS011;6773;51.192;7.024;2022-09-13T04:20:10;3.38;;;3.08;;
13404;SDS011;6773;51.192;7.024;2022-09-13T04:22:36;3.17;;;2.83;;
13404;SDS011;6773;51.192;7.024;2022-09-13T04:25:02;3.67;;;3.38;;
13404;SDS011;6773;51.192;7.024;2022-09-13T04:27:28;4.13;;;3.28;;
13404;SDS011;6773;51.192;7.024;2022-09-13T04:29:53;3.88;;;2.97;;
13404;SDS011;6773;51.192;7.024;2022-09-13T04:32:19;3.97;;;2.95;;
13404;SDS011;6773;51.192;7.024;2022-09-13T04:34:45;3.58;;;2.90;;
13404;SDS011;6773;51.192;7.024;2022-09-13T04:37:11;3.50;;;3.03;;
13404;SDS011;6773;51.192;7.024;2022-09-13T04:39:37;3.65;;;3.35;;
13404;SDS011;6773;51.192;7.024;2022-09-13T04:42:03;4.45;;;3.17;;
13404;SDS011;6773;51.192;7.024;2022-09-13T04:44:29;3.10;;;2.80;;
13404;SDS011;6773;51.192;7.024;2022-09-13T04:46:55;3.90;;;3.00;;
13404;SDS011;6773;51.192;7.024;2022-09-13T04:49:21;3.40;;;3.10;;
13404;SDS011;6773;51.192;7.024;2022-09-13T04:51:46;4.93;;;3.05;;
13404;SDS011;6773;51.192;7.024;2022-09-13T04:54:13;2.95;;;2.65;;
13404;SDS011;6773;51.192;7.024;2022-09-13T04:56:39;3.65;;;3.00;;
13404;SDS011;6773;51.192;7.024;2022-09-13T04:59:05;3.25;;;2.95;;
13404;SDS011;6773;51.192;7.024;2022-09-13T05:01:31;3.47;;;2.97;;
13404;SDS011;6773;51.192;7.024;2022-09-13T05:03:57;3.25;;;2.95;;
13404;SDS011;6773;51.192;7.024;2022-09-13T05:06:22;3.55;;;3.10;;
13404;SDS011;6773;51.192;7.024;2022-09-13T05:08:49;3.78;;;3.33;;
13404;SDS011;6773;51.192;7.024;2022-09-13T05:11:18;3.97;;;3.58;;
13404;SDS011;6773;51.192;7.024;2022-09-13T05:13:47;3.78;;;3.47;;
13404;SDS011;6773;51.192;7.024;2022-09-13T05:16:17;3.40;;;3.10;;
13404;SDS011;6773;51.192;7.024;2022-09-13T05:18:42;3.22;;;2.92;;
13404;SDS011;6773;51.192;7.024;2022-09-13T05:21:08;3.40;;;3.10;;
13404;SDS011;6773;51.192;7.024;2022-09-13T05:23:34;4.68;;;3.30;;
13404;SDS011;6773;51.192;7.024;2022-09-13T05:26:00;5.63;;;3.00;;
13404;SDS011;6773;51.192;7.024;2022-09-13T05:28:29;4.25;;;3.22;;
13404;SDS011;6773;51.192;7.024;2022-09-13T05:30:57;6.00;;;3.67;;
13404;SDS011;6773;51.192;7.024;2022-09-13T05:33:23;3.15;;;2.85;;
13404;SDS011;6773;51.192;7.024;2022-09-13T05:35:49;4.63;;;3.30;;
13404;SDS011;6773;51.192;7.024;2022-09-13T05:38:16;3.65;;;3.28;;
13404;SDS011;6773;51.192;7.024;2022-09-13T05:40:42;3.97;;;3.58;;
13404;SDS011;6773;51.192;7.024;2022-09-13T05:43:07;6.00;;;3.47;;
13404;SDS011;6773;51.192;7.024;2022-09-13T05:45:33;4.37;;;3.10;;
13404;SDS011;6773;51.192;7.024;2022-09-13T05:47:59;3.55;;;3.25;;
13404;SDS011;6773;51.192;7.024;2022-09-13T05:50:25;4.78;;;2.85;;
13404;SDS011;6773;51.192;7.024;2022-09-13T05:52:52;2.67;;;2.47;;
13404;SDS011;6773;51.192;7.024;2022-09-13T05:55:18;5.13;;;2.92;;
13404;SDS011;6773;51.192;7.024;2022-09-13T05:57:45;2.70;;;2.38;;
13404;SDS011;6773;51.192;7.024;2022-09-13T06:00:11;4.05;;;3.17;;
13404;SDS011;6773;51.192;7.024;2022-09-13T06:02:37;5.70;;;3.00;;
13404;SDS011;6773;51.192;7.024;2022-09-13T06:05:03;4.85;;;3.70;;
13404;SDS011;6773;51.192;7.024;2022-09-13T06:07:29;3.92;;;2.65;;
13404;SDS011;6773;51.192;7.024;2022-09-13T06:09:55;5.45;;;3.17;;
13404;SDS011;6773;51.192;7.024;2022-09-13T06:12:20;3.45;;;2.72;;
13404;SDS011;6773;51.192;7.024;2022-09-13T06:14:46;3.03;;;2.72;;
13404;SDS011;6773;51.192;7.024;2022-09-13T06:17:12;3.10;;;2.50;;
13404;SDS011;6773;51.192;7.024;2022-09-13T06:19:37;3.83;;;2.70;;
13404;SDS011;6773;51.192;7.024;2022-09-13T06:22:03;3.38;;;2.83;;
13404;SDS011;6773;51.192;7.024;2022-09-13T06:24:29;6.47;;;2.92;;
13404;SDS011;6773;51.192;7.024;2022-09-13T06:26:54;4.28;;;2.97;;
13404;SDS011;6773;51.192;7.024;2022-09-13T06:29:20;3.13;;;2.40;;
13404;SDS011;6773;51.192;7.024;2022-09-13T06:31:46;4.25;;;2.60;;
13404;SDS011;6773;51.192;7.024;2022-09-13T06:34:12;3.22;;;2.90;;
13404;SDS011;6773;51.192;7.024;2022-09-13T06:36:40;2.83;;;2.60;;
13404;SDS011;6773;51.192;7.024;2022-09-13T06:39:05;2.97;;;2.67;;
13404;SDS011;6773;51.192;7.024;2022-09-13T06:41:32;3.30;;;3.00;;
13404;SDS011;6773;51.192;7.024;2022-09-13T06:43:58;2.92;;;2.72;;
13404;SDS011;6773;51.192;7.024;2022-09-13T06:46:26;3.30;;;2.63;;
13404;SDS011;6773;51.192;7.024;2022-09-13T06:48:53;3.63;;;2.58;;
13404;SDS011;6773;51.192;7.024;2022-09-13T06:51:21;6.03;;;3.22;;
13404;SDS011;6773;51.192;7.024;2022-09-13T06:53:48;3.03;;;2.58;;
13404;SDS011;6773;51.192;7.024;2022-09-13T06:56:16;2.50;;;2.30;;
13404;SDS011;6773;51.192;7.024;2022-09-13T06:58:44;3.28;;;2.97;;
13404;SDS011;6773;51.192;7.024;2022-09-13T07:01:15;3.35;;;2.38;;
13404;SDS011;6773;51.192;7.024;2022-09-13T07:03:52;2.78;;;2.58;;
13404;SDS011;6773;51.192;7.024;2022-09-13T07:06:20;2.95;;;2.65;;
13404;SDS011;6773;51.192;7.024;2022-09-13T07:08:47;3.03;;;2.72;;
13404;SDS011;6773;51.192;7.024;2022-09-13T07:11:15;2.83;;;2.30;;
13404;SDS011;6773;51.192;7.024;2022-09-13T07:13:51;3.58;;;2.42;;
13404;SDS011;6773;51.192;7.024;2022-09-13T07:16:19;3.53;;;2.60;;
13404;SDS011;6773;51.192;7.024;2022-09-13T07:18:50;3.00;;;2.70;;
13404;SDS011;6773;51.192;7.024;2022-09-13T07:21:19;3.72;;;2.42;;
13404;SDS011;6773;51.192;7.024;2022-09-13T07:23:46;7.10;;;2.88;;
13404;SDS011;6773;51.192;7.024;2022-09-13T07:26:11;2.67;;;2.47;;
13404;SDS011;6773;51.192;7.024;2022-09-13T07:28:38;5.20;;;2.70;;
13404;SDS011;6773;51.192;7.024;2022-09-13T07:33:33;3.03;;;2.33;;
13404;SDS011;6773;51.192;7.024;2022-09-13T07:36:00;2.72;;;2.40;;
13404;SDS011;6773;51.192;7.024;2022-09-13T07:38:30;3.25;;;2.28;;
13404;SDS011;6773;51.192;7.024;2022-09-13T07:41:06;2.92;;;2.60;;
13404;SDS011;6773;51.192;7.024;2022-09-13T07:43:36;4.57;;;2.22;;
13404;SDS011;6773;51.192;7.024;2022-09-13T07:46:03;4.90;;;2.83;;
13404;SDS011;6773;51.192;7.024;2022-09-13T07:48:31;5.15;;;2.70;;
13404;SDS011;6773;51.192;7.024;2022-09-13T07:51:08;2.63;;;2.42;;
13404;SDS011;6773;51.192;7.024;2022-09-13T07:53:39;3.75;;;2.28;;
13404;SDS011;6773;51.192;7.024;2022-09-13T07:56:07;2.88;;;2.58;;
13404;SDS011;6773;51.192;7.024;2022-09-13T07:58:44;2.90;;;2.53;;
13404;SDS011;6773;51.192;7.024;2022-09-13T08:03:43;3.28;;;2.75;;
13404;SDS011;6773;51.192;7.024;2022-09-13T08:06:09;3.20;;;2.90;;
13404;SDS011;6773;51.192;7.024;2022-09-13T08:08:35;3.63;;;3.33;;
13404;SDS011;6773;51.192;7.024;2022-09-13T08:11:02;4.15;;;3.03;;
13404;SDS011;6773;51.192;7.024;2022-09-13T08:13:29;4.32;;;3.40;;
13404;SDS011;6773;51.192;7.024;2022-09-13T08:15:59;3.17;;;2.90;;
13404;SDS011;6773;51.192;7.024;2022-09-13T08:18:30;5.10;;;3.03;;
13404;SDS011;6773;51.192;7.024;2022-09-13T08:20:56;3.08;;;2.80;;
13404;SDS011;6773;51.192;7.024;2022-09-13T08:23:23;2.63;;;2.42;;
13404;SDS011;6773;51.192;7.024;2022-09-13T08:25:49;3.33;;;2.58;;
13404;SDS011;6773;51.192;7.024;2022-09-13T08:28:15;3.00;;;2.50;;
13404;SDS011;6773;51.192;7.024;2022-09-13T08:30:42;3.10;;;2.50;;
13404;SDS011;6773;51.192;7.024;2022-09-13T08:33:11;4.82;;;2.55;;
13404;SDS011;6773;51.192;7.024;2022-09-13T08:35:37;3.33;;;2.50;;
13404;SDS011;6773;51.192;7.024;2022-09-13T08:38:03;4.90;;;2.78;;
13404;SDS011;6773;51.192;7.024;2022-09-13T08:40:30;4.78;;;2.58;;
13404;SDS011;6773;51.192;7.024;2022-09-13T08:43:17;3.35;;;2.92;;
13404;SDS011;6773;51.192;7.024;2022-09-13T08:46:16;3.60;;;2.60;;
13404;SDS011;6773;51.192;7.024;2022-09-13T08:48:45;2.55;;;2.35;;
13404;SDS011;6773;51.192;7.024;2022-09-13T08:53:53;3.30;;;2.38;;
13404;SDS011;6773;51.192;7.024;2022-09-13T08:56:40;4.00;;;3.05;;
13404;SDS011;6773;51.192;7.024;2022-09-13T08:59:19;3.47;;;2.25;;
13404;SDS011;6773;51.192;7.024;2022-09-13T09:04:53;3.80;;;2.45;;
13404;SDS011;6773;51.192;7.024;2022-09-13T09:07:36;3.97;;;2.38;;
13404;SDS011;6773;51.192;7.024;2022-09-13T09:10:12;3.00;;;1.90;;
13404;SDS011;6773;51.192;7.024;2022-09-13T09:12:51;4.65;;;2.25;;
13404;SDS011;6773;51.192;7.024;2022-09-13T09:15:42;2.47;;;2.28;;
13404;SDS011;6773;51.192;7.024;2022-09-13T09:18:24;2.33;;;2.10;;
13404;SDS011;6773;51.192;7.024;2022-09-13T09:20:57;4.45;;;2.33;;
13404;SDS011;6773;51.192;7.024;2022-09-13T09:23:26;3.85;;;2.40;;
13404;SDS011;6773;51.192;7.024;2022-09-13T09:25:55;3.35;;;2.40;;
13404;SDS011;6773;51.192;7.024;2022-09-13T09:28:42;3.08;;;2.40;;
13404;SDS011;6773;51.192;7.024;2022-09-13T09:36:52;2.40;;;2.20;;
13404;SDS011;6773;51.192;7.024;2022-09-13T09:39:32;3.97;;;2.25;;
13404;SDS011;6773;51.192;7.024;2022-09-13T09:42:03;3.65;;;2.63;;
13404;SDS011;6773;51.192;7.024;2022-09-13T09:44:34;3.58;;;2.20;;
13404;SDS011;6773;51.192;7.024;2022-09-13T09:47:11;2.78;;;2.30;;
13404;SDS011;6773;51.192;7.024;2022-09-13T09:49:47;5.25;;;2.45;;
13404;SDS011;6773;51.192;7.024;2022-09-13T09:55:34;2.85;;;2.13;;
13404;SDS011;6773;51.192;7.024;2022-09-13T09:58:16;7.78;;;2.22;;
13404;SDS011;6773;51.192;7.024;2022-09-13T10:00:50;2.90;;;2.10;;
13404;SDS011;6773;51.192;7.024;2022-09-13T10:03:28;2.50;;;1.95;;
13404;SDS011;6773;51.192;7.024;2022-09-13T10:06:03;4.00;;;2.10;;
13404;SDS011;6773;51.192;7.024;2022-09-13T10:08:38;4.40;;;2.22;;
13404;SDS011;6773;51.192;7.024;2022-09-13T10:11:06;4.63;;;2.67;;
13404;SDS011;6773;51.192;7.024;2022-09-13T10:13:33;4.35;;;2.42;;
13404;SDS011;6773;51.192;7.024;2022-09-13T10:18:27;3.10;;;2.30;;
13404;SDS011;6773;51.192;7.024;2022-09-13T10:21:04;3.10;;;2.25;;
13404;SDS011;6773;51.192;7.024;2022-09-13T10:23:32;3.17;;;2.30;;
13404;SDS011;6773;51.192;7.024;2022-09-13T10:26:11;4.28;;;2.22;;
13404;SDS011;6773;51.192;7.024;2022-09-13T10:31:27;2.67;;;2.03;;
13404;SDS011;6773;51.192;7.024;2022-09-13T10:33:56;6.00;;;2.28;;
13404;SDS011;6773;51.192;7.024;2022-09-13T10:36:31;3.10;;;2.42;;
13404;SDS011;6773;51.192;7.024;2022-09-13T10:39:03;2.65;;;2.10;;
13404;SDS011;6773;51.192;7.024;2022-09-13T10:41:34;4.10;;;2.40;;
13404;SDS011;6773;51.192;7.024;2022-09-13T10:44:04;2.15;;;2.05;;
13404;SDS011;6773;51.192;7.024;2022-09-13T10:46:32;4.07;;;2.17;;
13404;SDS011;6773;51.192;7.024;2022-09-13T10:49:01;3.33;;;1.90;;
13404;SDS011;6773;51.192;7.024;2022-09-13T10:51:32;2.40;;;1.98;;
13404;SDS011;6773;51.192;7.024;2022-09-13T10:54:17;2.65;;;2.25;;
13404;SDS011;6773;51.192;7.024;2022-09-13T10:56:47;2.40;;;1.92;;
13404;SDS011;6773;51.192;7.024;2022-09-13T10:59:14;4.80;;;2.30;;
13404;SDS011;6773;51.192;7.024;2022-09-13T11:01:47;3.40;;;2.70;;
13404;SDS011;6773;51.192;7.024;2022-09-13T11:10:41;5.05;;;2.38;;
13404;SDS011;6773;51.192;7.024;2022-09-13T11:13:46;2.67;;;2.25;;
13404;SDS011;6773;51.192;7.024;2022-09-13T11:16:32;3.80;;;2.20;;
13404;SDS011;6773;51.192;7.024;2022-09-13T11:19:06;3.78;;;2.40;;
13404;SDS011;6773;51.192;7.024;2022-09-13T11:21:55;2.88;;;2.08;;
13404;SDS011;6773;51.192;7.024;2022-09-13T11:30:17;3.35;;;2.40;;
13404;SDS011;6773;51.192;7.024;2022-09-13T11:32:48;4.47;;;2.60;;
13404;SDS011;6773;51.192;7.024;2022-09-13T11:49:06;4.00;;;2.83;;
13404;SDS011;6773;51.192;7.024;2022-09-13T11:52:02;4.50;;;3.65;;
13404;SDS011;6773;51.192;7.024;2022-09-13T11:54:42;3.17;;;2.88;;
13404;SDS011;6773;51.192;7.024;2022-09-13T11:57:20;4.05;;;3.10;;
13404;SDS011;6773;51.192;7.024;2022-09-13T11:59:55;4.70;;;3.42;;
13404;SDS011;6773;51.192;7.024;2022-09-13T12:05:15;5.47;;;3.10;;
13404;SDS011;6773;51.192;7.024;2022-09-13T12:07:53;3.15;;;2.53;;
13404;SDS011;6773;51.192;7.024;2022-09-13T12:10:49;4.78;;;2.90;;
13404;SDS011;6773;51.192;7.024;2022-09-13T12:13:29;5.68;;;3.15;;
13404;SDS011;6773;51.192;7.024;2022-09-13T12:16:00;6.55;;;3.28;;
13404;SDS011;6773;51.192;7.024;2022-09-13T12:21:07;4.60;;;3.67;;
13404;SDS011;6773;51.192;7.024;2022-09-13T12:23:42;3.83;;;2.35;;
13404;SDS011;6773;51.192;7.024;2022-09-13T12:29:12;3.78;;;2.63;;
13404;SDS011;6773;51.192;7.024;2022-09-13T12:31:43;6.68;;;2.80;;
13404;SDS011;6773;51.192;7.024;2022-09-13T12:34:10;5.30;;;2.70;;
13404;SDS011;6773;51.192;7.024;2022-09-13T12:39:53;4.43;;;3.10;;
13404;SDS011;6773;51.192;7.024;2022-09-13T12:48:38;5.00;;;2.97;;
13404;SDS011;6773;51.192;7.024;2022-09-13T12:51:20;3.17;;;2.60;;
13404;SDS011;6773;51.192;7.024;2022-09-13T12:54:04;3.85;;;2.20;;
13404;SDS011;6773;51.192;7.024;2022-09-13T13:02:25;3.00;;;2.40;;
13404;SDS011;6773;51.192;7.024;2022-09-13T13:04:52;4.68;;;2.53;;
13404;SDS011;6773;51.192;7.024;2022-09-13T13:07:31;4.65;;;3.17;;
13404;SDS011;6773;51.192;7.024;2022-09-13T13:09:59;3.92;;;2.90;;
13404;SDS011;6773;51.192;7.024;2022-09-13T13:15:02;7.05;;;2.83;;
13404;SDS011;6773;51.192;7.024;2022-09-13T13:17:51;3.78;;;3.03;;
13404;SDS011;6773;51.192;7.024;2022-09-13T13:31:58;3.70;;;2.60;;
13404;SDS011;6773;51.192;7.024;2022-09-13T13:33:55;4.93;;;2.75;;
13404;SDS011;6773;51.192;7.024;2022-09-13T13:41:42;5.47;;;1.98;;
13404;SDS011;6773;51.192;7.024;2022-09-13T13:46:44;3.13;;;2.10;;
13404;SDS011;6773;51.192;7.024;2022-09-13T13:55:04;3.53;;;3.10;;
13404;SDS011;6773;51.192;7.024;2022-09-13T14:00:27;4.57;;;2.38;;
13404;SDS011;6773;51.192;7.024;2022-09-13T14:10:57;3.47;;;2.70;;
13404;SDS011;6773;51.192;7.024;2022-09-13T14:13:34;2.50;;;2.22;;
13404;SDS011;6773;51.192;7.024;2022-09-13T14:21:28;2.67;;;1.95;;
13404;SDS011;6773;51.192;7.024;2022-09-13T14:24:07;3.13;;;2.20;;
13404;SDS011;6773;51.192;7.024;2022-09-13T14:26:33;3.42;;;2.33;;
13404;SDS011;6773;51.192;7.024;2022-09-13T14:29:00;3.05;;;2.40;;
13404;SDS011;6773;51.192;7.024;2022-09-13T14:31:29;4.22;;;2.20;;
13404;SDS011;6773;51.192;7.024;2022-09-13T14:33:55;3.55;;;2.35;;
13404;SDS011;6773;51.192;7.024;2022-09-13T14:36:21;3.03;;;2.30;;
13404;SDS011;6773;51.192;7.024;2022-09-13T14:38:50;4.72;;;3.22;;
13404;SDS011;6773;51.192;7.024;2022-09-13T14:41:20;4.28;;;2.30;;
13404;SDS011;6773;51.192;7.024;2022-09-13T14:43:53;2.88;;;2.40;;
13404;SDS011;6773;51.192;7.024;2022-09-13T14:46:38;4.45;;;2.97;;
13404;SDS011;6773;51.192;7.024;2022-09-13T14:49:08;3.60;;;2.80;;
13404;SDS011;6773;51.192;7.024;2022-09-13T14:51:44;4.45;;;2.47;;
13404;SDS011;6773;51.192;7.024;2022-09-13T14:54:15;6.13;;;2.70;;
13404;SDS011;6773;51.192;7.024;2022-09-13T14:56:50;5.30;;;2.50;;
13404;SDS011;6773;51.192;7.024;2022-09-13T14:59:26;5.30;;;2.90;;
13404;SDS011;6773;51.192;7.024;2022-09-13T15:02:22;4.32;;;2.13;;
13404;SDS011;6773;51.192;7.024;2022-09-13T15:04:56;4.43;;;2.60;;
13404;SDS011;6773;51.192;7.024;2022-09-13T15:07:28;4.95;;;3.22;;
13404;SDS011;6773;51.192;7.024;2022-09-13T15:10:06;3.63;;;2.53;;
13404;SDS011;6773;51.192;7.024;2022-09-13T15:15:38;3.42;;;2.83;;
13404;SDS011;6773;51.192;7.024;2022-09-13T15:18:11;4.15;;;2.78;;
13404;SDS011;6773;51.192;7.024;2022-09-13T15:20:58;6.35;;;2.38;;
13404;SDS011;6773;51.192;7.024;2022-09-13T15:23:33;4.15;;;2.67;;
13404;SDS011;6773;51.192;7.024;2022-09-13T15:26:04;3.88;;;2.53;;
13404;SDS011;6773;51.192;7.024;2022-09-13T15:28:50;4.40;;;2.80;;
13404;SDS011;6773;51.192;7.024;2022-09-13T15:31:32;3.30;;;2.47;;
13404;SDS011;6773;51.192;7.024;2022-09-13T15:36:46;3.92;;;2.80;;
13404;SDS011;6773;51.192;7.024;2022-09-13T15:39:20;3.20;;;2.80;;
13404;SDS011;6773;51.192;7.024;2022-09-13T15:41:56;4.20;;;2.85;;
13404;SDS011;6773;51.192;7.024;2022-09-13T15:44:24;4.30;;;3.22;;
13404;SDS011;6773;51.192;7.024;2022-09-13T15:46:51;3.55;;;3.22;;
13404;SDS011;6773;51.192;7.024;2022-09-13T15:49:20;4.18;;;3.40;;
13404;SDS011;6773;51.192;7.024;2022-09-13T15:51:51;4.63;;;3.38;;
13404;SDS011;6773;51.192;7.024;2022-09-13T15:54:18;3.70;;;2.53;;
13404;SDS011;6773;51.192;7.024;2022-09-13T15:56:47;3.22;;;2.92;;
13404;SDS011;6773;51.192;7.024;2022-09-13T15:59:16;3.28;;;2.47;;
13404;SDS011;6773;51.192;7.024;2022-09-13T16:01:46;2.88;;;2.00;;
13404;SDS011;6773;51.192;7.024;2022-09-13T16:04:13;2.92;;;2.30;;
13404;SDS011;6773;51.192;7.024;2022-09-13T16:06:39;4.70;;;2.40;;
13404;SDS011;6773;51.192;7.024;2022-09-13T16:09:16;2.92;;;2.40;;
13404;SDS011;6773;51.192;7.024;2022-09-13T16:11:44;6.07;;;2.35;;
13404;SDS011;6773;51.192;7.024;2022-09-13T16:14:10;2.55;;;1.85;;
13404;SDS011;6773;51.192;7.024;2022-09-13T16:16:36;2.30;;;2.10;;
13404;SDS011;6773;51.192;7.024;2022-09-13T16:19:02;3.60;;;2.55;;
13404;SDS011;6773;51.192;7.024;2022-09-13T16:21:28;3.05;;;1.95;;
13404;SDS011;6773;51.192;7.024;2022-09-13T16:23:54;3.67;;;2.40;;
13404;SDS011;6773;51.192;7.024;2022-09-13T16:26:20;2.17;;;1.92;;
13404;SDS011;6773;51.192;7.024;2022-09-13T16:28:46;3.95;;;2.20;;
13404;SDS011;6773;51.192;7.024;2022-09-13T16:31:11;4.10;;;2.38;;
13404;SDS011;6773;51.192;7.024;2022-09-13T16:33:39;3.75;;;2.30;;
13404;SDS011;6773;51.192;7.024;2022-09-13T16:36:04;2.97;;;2.30;;
13404;SDS011;6773;51.192;7.024;2022-09-13T16:38:30;2.97;;;2.30;;
13404;SDS011;6773;51.192;7.024;2022-09-13T16:40:55;3.90;;;1.95;;
13404;SDS011;6773;51.192;7.024;2022-09-13T16:43:21;2.25;;;1.90;;
13404;SDS011;6773;51.192;7.024;2022-09-13T16:45:47;3.65;;;2.17;;
13404;SDS011;6773;51.192;7.024;2022-09-13T16:48:14;4.43;;;2.30;;
13404;SDS011;6773;51.192;7.024;2022-09-13T16:50:40;2.95;;;2.25;;
13404;SDS011;6773;51.192;7.024;2022-09-13T16:53:06;6.28;;;2.40;;
13404;SDS011;6773;51.192;7.024;2022-09-13T16:55:32;2.85;;;2.13;;
13404;SDS011;6773;51.192;7.024;2022-09-13T16:57:58;4.85;;;2.22;;
13404;SDS011;6773;51.192;7.024;2022-09-13T17:00:23;1.88;;;1.77;;
13404;SDS011;6773;51.192;7.024;2022-09-13T17:02:52;3.40;;;2.22;;
13404;SDS011;6773;51.192;7.024;2022-09-13T17:05:19;2.38;;;2.00;;
13404;SDS011;6773;51.192;7.024;2022-09-13T17:07:45;3.45;;;2.10;;
13404;SDS011;6773;51.192;7.024;2022-09-13T17:10:11;2.75;;;2.00;;
13404;SDS011;6773;51.192;7.024;2022-09-13T17:12:37;4.20;;;2.50;;
13404;SDS011;6773;51.192;7.024;2022-09-13T17:15:04;5.20;;;2.22;;
13404;SDS011;6773;51.192;7.024;2022-09-13T17:17:32;3.90;;;2.13;;
13404;SDS011;6773;51.192;7.024;2022-09-13T17:20:00;5.95;;;2.83;;
13404;SDS011;6773;51.192;7.024;2022-09-13T17:22:34;5.97;;;2.78;;
13404;SDS011;6773;51.192;7.024;2022-09-13T17:25:00;4.90;;;2.28;;
13404;SDS011;6773;51.192;7.024;2022-09-13T17:27:26;3.83;;;2.53;;
13404;SDS011;6773;51.192;7.024;2022-09-13T17:29:52;3.58;;;2.33;;
13404;SDS011;6773;51.192;7.024;2022-09-13T17:32:17;4.72;;;2.42;;
13404;SDS011;6773;51.192;7.024;2022-09-13T17:34:43;5.60;;;2.70;;
13404;SDS011;6773;51.192;7.024;2022-09-13T17:37:09;7.72;;;2.72;;
13404;SDS011;6773;51.192;7.024;2022-09-13T17:39:35;3.38;;;2.50;;
13404;SDS011;6773;51.192;7.024;2022-09-13T17:42:00;4.50;;;3.10;;
13404;SDS011;6773;51.192;7.024;2022-09-13T17:44:26;3.10;;;2.70;;
13404;SDS011;6773;51.192;7.024;2022-09-13T17:46:52;3.05;;;2.75;;
13404;SDS011;6773;51.192;7.024;2022-09-13T17:49:18;3.85;;;3.50;;
13404;SDS011;6773;51.192;7.024;2022-09-13T17:51:44;5.68;;;3.70;;
13404;SDS011;6773;51.192;7.024;2022-09-13T17:54:10;5.50;;;3.35;;
13404;SDS011;6773;51.192;7.024;2022-09-13T17:56:40;5.32;;;3.20;;
13404;SDS011;6773;51.192;7.024;2022-09-13T17:59:09;8.73;;;3.38;;
13404;SDS011;6773;51.192;7.024;2022-09-13T18:01:35;5.55;;;3.35;;
13404;SDS011;6773;51.192;7.024;2022-09-13T18:04:02;3.83;;;3.53;;
13404;SDS011;6773;51.192;7.024;2022-09-13T18:06:28;4.10;;;3.53;;